Time;durP1;ratioP1;P1;durP2;ratioP2;P2;SDS_P1;SDS_P2;PMS_P1;PMS_P2;Temp;Humidity;BMP_temperature;BMP_pressure;BME280_temperature;BME280_humidity;BME280_pressure;Samples;Min_cycle;Max_cycle;Signal;HPM_P1;HPM_P2
2022/12/29 00:01:53;;;;;;;12.00;8.83;;;5.60;99.90;;;;;;5054996;28;20190;-48
2022/12/29 00:04:18;;;;;;;16.33;13.87;;;5.60;99.90;;;;;;5061810;28;20538;-47
2022/12/29 00:06:44;;;;;;;14.17;9.73;;;5.60;99.90;;;;;;5034751;28;20179;-49
2022/12/29 00:09:14;;;;;;;10.27;8.97;;;5.50;99.90;;;;;;5053509;28;20194;-49
2022/12/29 00:11:39;;;;;;;12.60;9.23;;;5.50;99.90;;;;;;5058892;28;20647;-48
2022/12/29 00:16:49;;;;;;;8.73;7.83;;;5.50;99.90;;;;;;5059453;28;20224;-51
2022/12/29 00:35:53;;;;;;;9.83;8.37;;;5.40;99.90;;;;;;5057986;28;20220;-48
2022/12/29 00:44:06;;;;;;;8.83;7.93;;;6.20;99.90;;;;;;5031039;28;20202;-61
2022/12/29 00:46:33;;;;;;;8.67;7.27;;;5.30;99.90;;;;;;5023672;28;20282;-58
2022/12/29 00:51:44;;;;;;;8.87;6.93;;;5.30;99.90;;;;;;5030322;28;20223;-61
2022/12/29 00:54:10;;;;;;;10.30;8.13;;;5.30;99.90;;;;;;5026526;28;20172;-59
2022/12/29 00:56:36;;;;;;;10.17;8.00;;;5.40;99.90;;;;;;5026687;28;20183;-60
2022/12/29 00:59:04;;;;;;;7.83;7.03;;;5.30;99.90;;;;;;5026110;28;20572;-61
2022/12/29 01:01:29;;;;;;;8.10;7.07;;;5.30;99.90;;;;;;5024192;28;20226;-56
2022/12/29 01:03:55;;;;;;;8.10;7.27;;;5.30;99.90;;;;;;5028769;28;20180;-59
2022/12/29 01:06:21;;;;;;;10.87;7.93;;;5.30;99.90;;;;;;5025951;28;20208;-58
2022/12/29 01:10:09;;;;;;;8.53;6.93;;;5.40;99.90;;;;;;5025659;28;20170;-54
2022/12/29 01:11:32;;;;;;;8.23;7.33;;;5.40;99.90;;;;;;5027026;28;20203;-57
2022/12/29 01:13:57;;;;;;;8.67;7.27;;;5.40;99.90;;;;;;5027665;28;20180;-60
2022/12/29 01:16:23;;;;;;;7.40;6.57;;;5.40;99.90;;;;;;5026364;28;20188;-60
2022/12/29 01:18:48;;;;;;;7.73;6.93;;;5.40;99.90;;;;;;5026527;28;20219;-62
2022/12/29 01:21:14;;;;;;;7.67;6.43;;;5.40;99.90;;;;;;5026230;28;20210;-57
2022/12/29 01:23:39;;;;;;;7.90;7.07;;;5.40;99.90;;;;;;5025927;28;20552;-56
2022/12/29 01:26:12;;;;;;;8.47;6.80;;;5.30;99.90;;;;;;5025493;28;20645;-58
2022/12/29 01:28:41;;;;;;;8.47;7.47;;;5.30;99.90;;;;;;5027492;28;20176;-60
2022/12/29 01:31:11;;;;;;;7.53;6.73;;;5.20;99.90;;;;;;5025154;28;20262;-60
2022/12/29 01:33:37;;;;;;;7.00;6.27;;;5.30;99.90;;;;;;5027106;28;20234;-57
2022/12/29 01:36:04;;;;;;;7.10;6.40;;;5.20;99.90;;;;;;5030106;28;20629;-60
2022/12/29 01:38:30;;;;;;;7.93;6.87;;;5.20;99.90;;;;;;5024293;28;20175;-58
2022/12/29 01:40:55;;;;;;;8.37;6.50;;;5.30;99.90;;;;;;5026438;28;20542;-60
2022/12/29 01:43:21;;;;;;;8.17;7.10;;;5.30;99.90;;;;;;5027867;28;20206;-57
2022/12/29 01:45:55;;;;;;;8.00;6.70;;;5.30;99.90;;;;;;5025430;28;20250;-59
2022/12/29 01:48:21;;;;;;;8.73;7.10;;;5.30;99.90;;;;;;5029572;28;20187;-58
2022/12/29 01:50:51;;;;;;;8.27;6.63;;;5.30;99.90;;;;;;5031377;28;20229;-59
2022/12/29 01:53:33;;;;;;;8.47;6.83;;;5.20;99.90;;;;;;5025291;28;20248;-58
2022/12/29 01:56:03;;;;;;;8.43;6.43;;;5.20;99.90;;;;;;5026055;28;20265;-58
2022/12/29 01:58:33;;;;;;;8.50;6.30;;;5.20;99.90;;;;;;5007469;28;20727;-61
2022/12/29 02:00:59;;;;;;;7.73;6.30;;;5.30;99.90;;;;;;5025310;28;20242;-59
2022/12/29 02:03:27;;;;;;;7.00;6.13;;;5.20;99.90;;;;;;5025611;28;20180;-61
2022/12/29 02:05:56;;;;;;;7.47;5.83;;;5.20;99.90;;;;;;5024344;28;20187;-59
2022/12/29 02:08:24;;;;;;;8.53;6.77;;;5.20;99.90;;;;;;5025620;28;20298;-62
2022/12/29 02:10:50;;;;;;;7.90;7.00;;;5.20;99.90;;;;;;5025281;28;20179;-60
2022/12/29 02:13:19;;;;;;;7.20;6.00;;;5.20;99.90;;;;;;5025918;28;20179;-60
2022/12/29 02:15:50;;;;;;;7.00;5.87;;;5.10;99.90;;;;;;5024393;28;22002;-58
2022/12/29 02:18:47;;;;;;;6.90;6.10;;;5.10;99.90;;;;;;5026109;28;20176;-58
2022/12/29 02:21:34;;;;;;;7.50;6.57;;;5.10;99.90;;;;;;5024313;28;20200;-62
2022/12/29 02:24:12;;;;;;;6.87;6.07;;;5.10;99.90;;;;;;5020036;28;20196;-60
2022/12/29 02:26:48;;;;;;;6.77;5.87;;;5.10;99.90;;;;;;5005202;28;20207;-60
2022/12/29 02:29:26;;;;;;;6.00;5.40;;;5.00;99.90;;;;;;5024823;28;20179;-57
2022/12/29 02:32:02;;;;;;;7.43;6.30;;;5.00;99.90;;;;;;5024147;28;20199;-58
2022/12/29 02:34:44;;;;;;;7.50;6.27;;;5.00;99.90;;;;;;5023432;28;20514;-59
2022/12/29 02:37:39;;;;;;;6.60;5.90;;;5.00;99.90;;;;;;5028693;28;20183;-58
2022/12/29 02:40:26;;;;;;;6.43;5.50;;;5.00;99.90;;;;;;5014812;28;20169;-57
2022/12/29 02:43:00;;;;;;;11.57;6.47;;;5.00;99.90;;;;;;5025920;28;20211;-59
2022/12/29 02:45:34;;;;;;;6.53;5.83;;;4.90;99.90;;;;;;5026616;28;20191;-60
2022/12/29 02:48:23;;;;;;;6.73;5.60;;;4.90;99.90;;;;;;5027274;28;20168;-60
2022/12/29 02:51:10;;;;;;;6.47;5.53;;;4.90;99.90;;;;;;5024571;28;20247;-55
2022/12/29 02:56:21;;;;;;;7.67;5.63;;;4.90;99.90;;;;;;5025248;28;20237;-61
2022/12/29 02:58:47;;;;;;;6.80;6.10;;;4.90;99.90;;;;;;5023446;28;20236;-60
2022/12/29 03:01:39;;;;;;;6.30;5.57;;;4.90;99.90;;;;;;5023962;28;20748;-60
2022/12/29 03:04:31;;;;;;;7.17;5.87;;;4.90;99.90;;;;;;5024146;28;20529;-60
2022/12/29 03:07:21;;;;;;;6.63;5.90;;;4.90;99.90;;;;;;5023757;28;20176;-60
2022/12/29 03:10:05;;;;;;;7.03;5.60;;;4.90;99.90;;;;;;5024463;28;20320;-59
2022/12/29 03:18:24;;;;;;;6.20;5.33;;;4.80;99.90;;;;;;5024136;28;20839;-59
2022/12/29 03:20:54;;;;;;;7.27;5.30;;;4.80;99.90;;;;;;5024373;28;20210;-59
2022/12/29 03:23:21;;;;;;;8.27;5.50;;;4.80;99.90;;;;;;5024064;28;20200;-61
2022/12/29 03:25:50;;;;;;;5.90;5.30;;;4.80;99.90;;;;;;5024101;28;20261;-59
2022/12/29 03:28:23;;;;;;;6.40;5.53;;;4.80;99.90;;;;;;5026000;28;20172;-59
2022/12/29 03:30:48;;;;;;;7.07;5.50;;;4.80;99.90;;;;;;5023502;28;20477;-62
2022/12/29 03:33:19;;;;;;;6.37;5.60;;;4.80;99.90;;;;;;5023642;28;20238;-59
2022/12/29 03:35:47;;;;;;;6.37;5.50;;;4.80;99.90;;;;;;5025999;28;20179;-61
2022/12/29 03:38:23;;;;;;;6.57;5.23;;;4.80;99.90;;;;;;5028253;28;20257;-62
2022/12/29 03:40:56;;;;;;;6.87;5.73;;;4.80;99.90;;;;;;5027418;28;20187;-55
2022/12/29 03:43:22;;;;;;;7.53;5.80;;;4.70;99.90;;;;;;5027625;28;20338;-61
2022/12/29 03:45:48;;;;;;;7.80;6.50;;;4.70;99.90;;;;;;5031342;28;20222;-63
2022/12/29 03:48:14;;;;;;;6.70;6.00;;;4.80;99.90;;;;;;5015339;28;20674;-62
2022/12/29 03:50:39;;;;;;;6.47;5.87;;;4.70;99.90;;;;;;5019427;28;20179;-58
2022/12/29 03:53:05;;;;;;;7.53;5.70;;;4.70;99.90;;;;;;5024919;28;20207;-56
2022/12/29 03:55:30;;;;;;;6.13;5.40;;;4.80;99.90;;;;;;5026471;28;20187;-58
2022/12/29 03:57:56;;;;;;;6.70;5.57;;;4.80;99.90;;;;;;5026041;28;20188;-59
2022/12/29 04:00:22;;;;;;;6.10;5.50;;;4.80;99.90;;;;;;5027081;28;20192;-61
2022/12/29 04:02:47;;;;;;;7.53;6.30;;;4.80;99.90;;;;;;5025900;28;20252;-57
2022/12/29 04:05:13;;;;;;;6.13;5.53;;;4.80;99.90;;;;;;5028900;28;20614;-60
2022/12/29 04:07:38;;;;;;;8.07;6.60;;;4.80;99.90;;;;;;5024624;28;20576;-60
2022/12/29 04:10:04;;;;;;;6.80;6.07;;;4.80;99.90;;;;;;5017841;28;20195;-60
2022/12/29 04:12:30;;;;;;;7.00;6.00;;;4.70;99.90;;;;;;5021926;28;20196;-61
2022/12/29 04:14:55;;;;;;;6.97;6.07;;;4.80;99.90;;;;;;5032709;28;20190;-62
2022/12/29 04:17:21;;;;;;;7.27;6.23;;;4.80;99.90;;;;;;5028047;28;20180;-61
2022/12/29 04:19:46;;;;;;;6.93;5.97;;;4.80;99.90;;;;;;5026695;28;20183;-56
2022/12/29 04:22:12;;;;;;;6.77;6.07;;;4.90;99.90;;;;;;5028204;28;20199;-62
2022/12/29 04:24:38;;;;;;;6.13;5.53;;;5.00;99.90;;;;;;5026950;28;20188;-60
2022/12/29 04:27:03;;;;;;;6.40;5.80;;;5.00;99.90;;;;;;5024742;28;20556;-59
2022/12/29 04:29:29;;;;;;;6.53;5.80;;;5.00;99.90;;;;;;5026198;28;20187;-62
2022/12/29 04:31:54;;;;;;;6.23;5.63;;;5.00;99.90;;;;;;5026301;28;20710;-63
2022/12/29 04:34:20;;;;;;;6.73;5.53;;;5.00;99.90;;;;;;5025398;28;20672;-61
2022/12/29 04:36:45;;;;;;;6.10;5.50;;;5.00;99.90;;;;;;5028131;28;20553;-62
2022/12/29 04:39:11;;;;;;;6.03;4.97;;;5.10;99.90;;;;;;5026949;28;20272;-62
2022/12/29 04:41:36;;;;;;;5.67;5.07;;;5.10;99.90;;;;;;5026645;28;20215;-60
2022/12/29 04:44:02;;;;;;;5.53;5.00;;;5.10;99.90;;;;;;5025823;28;20179;-60
2022/12/29 04:46:28;;;;;;;5.30;4.80;;;5.10;99.90;;;;;;5027466;28;20203;-62
2022/12/29 04:48:53;;;;;;;5.80;5.13;;;5.00;99.90;;;;;;5027113;28;20254;-60
2022/12/29 04:51:19;;;;;;;5.33;4.83;;;5.00;99.90;;;;;;5026581;28;20204;-59
2022/12/29 04:53:44;;;;;;;6.90;4.87;;;5.00;99.90;;;;;;5026749;28;20696;-61
2022/12/29 04:56:10;;;;;;;6.40;5.77;;;5.00;99.90;;;;;;5026758;28;20179;-56
2022/12/29 04:58:36;;;;;;;5.70;5.10;;;5.00;99.90;;;;;;5026460;28;20475;-62
2022/12/29 05:01:02;;;;;;;5.13;4.57;;;5.00;99.90;;;;;;5025542;28;20184;-60
2022/12/29 05:03:27;;;;;;;4.93;4.07;;;5.00;99.90;;;;;;5025525;28;20286;-62
2022/12/29 05:05:55;;;;;;;5.07;4.33;;;5.00;99.90;;;;;;5028278;28;20211;-61
2022/12/29 05:08:21;;;;;;;5.30;4.40;;;5.00;99.90;;;;;;5030540;28;20202;-59
2022/12/29 05:10:47;;;;;;;6.93;4.87;;;5.00;99.90;;;;;;5025516;28;20942;-61
2022/12/29 05:13:13;;;;;;;4.93;4.43;;;5.00;99.90;;;;;;5026716;28;20219;-61
2022/12/29 05:15:38;;;;;;;4.33;3.93;;;5.00;99.90;;;;;;5021075;28;20226;-60
2022/12/29 05:18:04;;;;;;;5.73;4.07;;;5.00;99.90;;;;;;5024381;28;20219;-60
2022/12/29 05:20:29;;;;;;;4.90;4.00;;;5.00;99.90;;;;;;5007311;28;20203;-60
2022/12/29 05:22:55;;;;;;;4.87;4.30;;;5.00;99.90;;;;;;5025347;28;20207;-58
2022/12/29 05:25:20;;;;;;;4.90;4.07;;;5.00;99.90;;;;;;5023518;28;20306;-63
2022/12/29 05:27:46;;;;;;;5.00;4.50;;;5.00;99.90;;;;;;5023962;28;20219;-61
2022/12/29 05:30:12;;;;;;;4.60;4.17;;;5.10;99.90;;;;;;5025090;28;20252;-60
2022/12/29 05:32:37;;;;;;;4.73;4.23;;;5.10;99.90;;;;;;5025098;28;20226;-62
2022/12/29 05:35:03;;;;;;;4.80;4.30;;;5.10;99.90;;;;;;5023848;28;20192;-62
2022/12/29 05:37:29;;;;;;;4.90;4.40;;;5.10;99.90;;;;;;5028729;28;20336;-60
2022/12/29 05:39:55;;;;;;;4.20;3.80;;;5.10;99.90;;;;;;5023970;28;20582;-62
2022/12/29 05:42:20;;;;;;;4.00;3.60;;;5.00;99.90;;;;;;5025189;28;20277;-59
2022/12/29 05:44:46;;;;;;;4.80;4.30;;;5.00;99.90;;;;;;5024255;28;20199;-63
2022/12/29 05:47:11;;;;;;;5.43;4.27;;;5.10;99.90;;;;;;5027721;28;20541;-62
2022/12/29 05:49:37;;;;;;;4.23;3.83;;;5.10;99.90;;;;;;5027006;28;20188;-63
2022/12/29 05:52:03;;;;;;;4.30;3.90;;;5.20;99.90;;;;;;5014931;28;20302;-60
2022/12/29 05:54:28;;;;;;;4.00;3.60;;;5.30;99.90;;;;;;5024787;28;20184;-63
2022/12/29 05:56:54;;;;;;;3.60;3.30;;;5.20;99.90;;;;;;5025410;28;20175;-60
2022/12/29 05:59:19;;;;;;;4.13;3.60;;;5.30;99.90;;;;;;5024059;28;20179;-57
2022/12/29 06:01:45;;;;;;;5.20;3.70;;;5.30;99.90;;;;;;5024004;28;20591;-60
2022/12/29 06:04:10;;;;;;;4.17;3.60;;;5.30;99.90;;;;;;5025382;28;20183;-58
2022/12/29 06:06:36;;;;;;;4.33;3.57;;;5.40;99.90;;;;;;5019259;28;20244;-59
2022/12/29 06:09:01;;;;;;;4.37;3.67;;;5.40;99.90;;;;;;5030833;28;20258;-61
2022/12/29 06:11:27;;;;;;;4.70;4.30;;;5.30;99.90;;;;;;5030547;28;20257;-59
2022/12/29 06:13:52;;;;;;;4.47;3.50;;;5.30;99.90;;;;;;5030261;28;20387;-58
2022/12/29 06:16:18;;;;;;;4.80;4.00;;;5.30;99.90;;;;;;5030283;28;20218;-59
2022/12/29 06:18:43;;;;;;;4.17;3.77;;;5.20;99.90;;;;;;5031090;28;20251;-63
2022/12/29 06:21:09;;;;;;;4.03;3.63;;;5.00;99.90;;;;;;5031296;28;20764;-59
2022/12/29 06:23:34;;;;;;;4.50;4.10;;;5.00;99.90;;;;;;5030132;28;20564;-58
2022/12/29 06:26:00;;;;;;;4.77;4.30;;;5.00;99.90;;;;;;5012312;28;20204;-60
2022/12/29 06:28:25;;;;;;;4.80;4.20;;;4.90;99.90;;;;;;5011356;28;20258;-60
2022/12/29 06:30:51;;;;;;;5.30;4.67;;;4.80;99.90;;;;;;5011377;28;20263;-58
2022/12/29 06:33:17;;;;;;;4.87;4.40;;;4.80;99.90;;;;;;5010807;28;20182;-59
2022/12/29 06:35:43;;;;;;;6.63;5.93;;;4.80;99.90;;;;;;5010402;28;20196;-57
2022/12/29 06:38:08;;;;;;;9.60;7.70;;;4.70;99.90;;;;;;5030776;28;20180;-58
2022/12/29 06:40:34;;;;;;;5.33;4.83;;;4.80;99.90;;;;;;5027178;28;20286;-57
2022/12/29 06:43:00;;;;;;;4.97;4.47;;;4.90;99.90;;;;;;5103725;22;20224;-47
2022/12/29 06:45:25;;;;;;;5.07;4.50;;;5.00;99.90;;;;;;5094120;28;20247;-49
2022/12/29 06:47:51;;;;;;;7.17;4.70;;;6.30;99.90;;;;;;5090065;28;20182;-48
2022/12/29 06:50:16;;;;;;;6.13;5.37;;;5.20;99.90;;;;;;5091538;28;20182;-49
2022/12/29 06:52:42;;;;;;;5.73;5.13;;;5.30;99.90;;;;;;5089352;28;20194;-48
2022/12/29 06:55:07;;;;;;;6.10;5.50;;;5.30;99.90;;;;;;5081324;28;20848;-48
2022/12/29 06:57:33;;;;;;;6.57;4.67;;;5.40;99.90;;;;;;5089084;28;20700;-46
2022/12/29 06:59:59;;;;;;;5.30;4.80;;;5.50;99.90;;;;;;5089298;28;20181;-47
2022/12/29 07:02:27;;;;;;;5.90;4.80;;;5.50;99.90;;;;;;5089994;28;20189;-48
2022/12/29 07:04:53;;;;;;;5.77;4.93;;;5.50;99.90;;;;;;5089716;28;20197;-49
2022/12/29 07:07:19;;;;;;;6.23;5.20;;;5.60;99.90;;;;;;5089755;28;20184;-48
2022/12/29 07:09:45;;;;;;;5.93;5.10;;;5.60;99.90;;;;;;5091061;28;20173;-50
2022/12/29 07:12:11;;;;;;;5.77;4.63;;;5.60;99.90;;;;;;5074349;28;20606;-48
2022/12/29 07:14:36;;;;;;;6.57;4.77;;;5.60;99.90;;;;;;5072400;28;20202;-50
2022/12/29 07:17:05;;;;;;;6.13;4.80;;;5.60;99.90;;;;;;5075906;28;20367;-47
2022/12/29 07:19:31;;;;;;;5.40;4.63;;;5.70;99.90;;;;;;5080516;28;20181;-49
2022/12/29 07:21:56;;;;;;;6.83;4.80;;;5.80;99.90;;;;;;5086055;28;20186;-48
2022/12/29 07:24:22;;;;;;;5.57;4.80;;;5.80;99.90;;;;;;5076802;28;20660;-48
2022/12/29 07:26:47;;;;;;;6.93;5.47;;;5.80;99.90;;;;;;5083011;28;20213;-47
2022/12/29 07:29:13;;;;;;;5.43;4.87;;;5.80;99.90;;;;;;5084312;28;20182;-46
2022/12/29 07:31:38;;;;;;;6.20;4.87;;;5.70;99.90;;;;;;5086153;28;20170;-48
2022/12/29 07:34:04;;;;;;;5.40;4.90;;;5.80;99.90;;;;;;5086153;28;20194;-52
2022/12/29 07:36:30;;;;;;;6.27;4.90;;;5.40;99.90;;;;;;5086262;28;20177;-47
2022/12/29 07:38:55;;;;;;;5.00;4.50;;;5.90;99.90;;;;;;5085202;28;20174;-49
2022/12/29 07:41:21;;;;;;;7.10;5.17;;;5.90;99.90;;;;;;5086962;28;20166;-46
2022/12/29 07:43:48;;;;;;;5.50;4.90;;;5.90;99.90;;;;;;5086065;28;20217;-50
2022/12/29 07:46:14;;;;;;;6.57;5.40;;;6.00;99.90;;;;;;5087037;28;20908;-48
2022/12/29 07:48:39;;;;;;;6.63;4.63;;;6.00;99.90;;;;;;5086639;28;20169;-48
2022/12/29 07:51:06;;;;;;;5.03;4.53;;;6.00;99.90;;;;;;5081802;28;20686;-50
2022/12/29 07:53:31;;;;;;;5.17;4.43;;;6.10;99.90;;;;;;5065709;28;20190;-48
2022/12/29 07:55:57;;;;;;;5.93;5.10;;;6.10;99.90;;;;;;5066744;28;20174;-48
2022/12/29 07:58:23;;;;;;;6.33;5.37;;;6.20;99.90;;;;;;5066361;28;20178;-49
2022/12/29 08:00:55;;;;;;;5.67;5.13;;;6.20;99.90;;;;;;5066264;28;20179;-48
2022/12/29 08:03:22;;;;;;;7.70;6.00;;;6.20;99.90;;;;;;5066037;28;20218;-48
2022/12/29 08:05:48;;;;;;;6.33;5.10;;;6.10;99.90;;;;;;5066590;28;20605;-48
2022/12/29 08:08:13;;;;;;;5.80;5.20;;;6.10;99.90;;;;;;5066802;28;20202;-48
2022/12/29 08:10:39;;;;;;;5.43;4.93;;;6.20;99.90;;;;;;5065660;28;20646;-48
2022/12/29 08:13:05;;;;;;;7.53;5.70;;;6.30;99.90;;;;;;5065863;28;20190;-48
2022/12/29 08:15:30;;;;;;;5.67;5.07;;;6.30;99.90;;;;;;5065555;28;20626;-49
2022/12/29 08:17:56;;;;;;;5.83;5.23;;;6.40;99.90;;;;;;5065152;28;20534;-47
2022/12/29 08:20:21;;;;;;;5.77;5.20;;;6.50;99.90;;;;;;5067312;28;20198;-48
2022/12/29 08:22:47;;;;;;;5.63;4.83;;;6.60;99.90;;;;;;5090282;28;20205;-49
2022/12/29 08:25:12;;;;;;;5.50;5.00;;;6.70;99.90;;;;;;5092074;28;20205;-49
2022/12/29 08:27:38;;;;;;;5.10;4.57;;;6.80;99.90;;;;;;5093020;28;20265;-49
2022/12/29 08:30:04;;;;;;;5.47;4.90;;;7.00;99.90;;;;;;5093322;28;20170;-53
2022/12/29 08:32:29;;;;;;;5.40;4.90;;;7.00;99.90;;;;;;5092805;28;20201;-51
2022/12/29 08:34:55;;;;;;;5.40;4.90;;;7.20;99.90;;;;;;5092227;28;20174;-50
2022/12/29 08:37:21;;;;;;;6.10;4.70;;;7.50;99.90;;;;;;5093168;28;20173;-50
2022/12/29 08:39:47;;;;;;;5.63;4.70;;;7.70;99.90;;;;;;5078039;28;20179;-51
2022/12/29 08:42:13;;;;;;;4.77;4.20;;;8.00;99.90;;;;;;5072593;28;20252;-49
2022/12/29 08:44:38;;;;;;;5.97;5.20;;;8.30;99.90;;;;;;5072171;28;20189;-51
2022/12/29 08:47:04;;;;;;;5.50;4.90;;;8.50;99.90;;;;;;5072649;28;20178;-49
2022/12/29 08:49:30;;;;;;;5.20;4.50;;;8.80;99.90;;;;;;5072537;28;20170;-47
2022/12/29 08:51:55;;;;;;;5.23;4.70;;;8.90;99.90;;;;;;5072440;28;20232;-49
2022/12/29 08:54:21;;;;;;;4.83;4.03;;;9.00;99.90;;;;;;5071743;28;20170;-49
2022/12/29 08:56:47;;;;;;;5.77;4.50;;;9.10;99.90;;;;;;5071965;28;20665;-49
2022/12/29 08:59:12;;;;;;;5.93;4.30;;;9.10;99.90;;;;;;5072888;28;20201;-48
2022/12/29 09:01:40;;;;;;;5.03;4.37;;;9.10;99.90;;;;;;5071615;28;20182;-48
2022/12/29 09:04:06;;;;;;;4.67;4.10;;;9.30;99.90;;;;;;5071837;28;20199;-48
2022/12/29 09:06:31;;;;;;;4.73;4.33;;;9.50;99.90;;;;;;5072155;28;20308;-52
2022/12/29 09:08:57;;;;;;;4.30;3.90;;;9.90;99.90;;;;;;5071890;28;20183;-49
2022/12/29 09:11:24;;;;;;;3.93;3.53;;;11.10;99.90;;;;;;5072256;28;20163;-49
2022/12/29 09:13:51;;;;;;;4.83;3.87;;;12.40;99.90;;;;;;5071386;28;20203;-50
2022/12/29 09:16:17;;;;;;;4.43;3.70;;;14.10;99.90;;;;;;5085035;28;20543;-49
2022/12/29 09:18:44;;;;;;;4.17;3.77;;;16.00;97.00;;;;;;5088992;28;20281;-49
2022/12/29 09:21:10;;;;;;;11.20;10.20;;;17.70;93.10;;;;;;5070398;28;20218;-50
2022/12/29 09:23:36;;;;;;;3.70;3.40;;;18.70;88.00;;;;;;5071649;28;20676;-47
2022/12/29 09:26:02;;;;;;;6.23;5.63;;;19.00;83.90;;;;;;5081367;28;20277;-49
2022/12/29 09:28:28;;;;;;;14.80;13.40;;;19.00;80.90;;;;;;5090645;28;20170;-46
2022/12/29 09:30:54;;;;;;;9.37;8.40;;;18.70;79.30;;;;;;5090714;28;20189;-47
2022/12/29 09:33:20;;;;;;;14.93;13.63;;;18.40;79.50;;;;;;5091649;28;20232;-48
2022/12/29 09:35:52;;;;;;;4.67;4.27;;;17.90;79.00;;;;;;5072429;28;20232;-50
2022/12/29 09:38:18;;;;;;;4.17;3.77;;;17.10;80.40;;;;;;5090155;28;20173;-51
2022/12/29 09:40:55;;;;;;;4.80;3.93;;;16.60;82.20;;;;;;5089453;28;20655;-49
2022/12/29 09:43:33;;;;;;;3.70;3.40;;;16.10;85.40;;;;;;5105950;28;20211;-46
2022/12/29 09:46:04;;;;;;;3.87;3.47;;;16.00;86.00;;;;;;5090508;28;20197;-48
2022/12/29 09:48:37;;;;;;;4.23;3.87;;;16.10;86.40;;;;;;5090030;28;20595;-47
2022/12/29 09:51:11;;;;;;;4.20;3.80;;;16.50;87.10;;;;;;5091562;28;20214;-48
2022/12/29 09:53:41;;;;;;;3.97;3.57;;;17.30;85.10;;;;;;5089602;28;20190;-47
2022/12/29 09:56:18;;;;;;;4.33;3.93;;;18.00;83.30;;;;;;5090154;28;20273;-50
2022/12/29 09:59:19;;;;;;;4.23;3.83;;;18.40;81.60;;;;;;5091486;28;20181;-46
2022/12/29 10:01:59;;;;;;;5.07;4.10;;;18.70;79.90;;;;;;5091846;28;20645;-48
2022/12/29 10:04:27;;;;;;;4.90;3.57;;;19.10;77.90;;;;;;5091204;28;20154;-51
2022/12/29 10:07:14;;;;;;;4.18;3.78;;;19.60;78.60;;;;;;5091065;28;20193;-52
2022/12/29 10:09:50;;;;;;;5.65;4.15;;;20.50;77.90;;;;;;5089347;28;20184;-52
2022/12/29 10:12:35;;;;;;;3.88;3.55;;;21.40;73.00;;;;;;5090813;28;20565;-52
2022/12/29 10:15:19;;;;;;;4.97;4.57;;;22.00;73.30;;;;;;5090505;28;20165;-48
2022/12/29 10:18:27;;;;;;;3.88;3.50;;;22.70;70.30;;;;;;5090897;28;20177;-49
2022/12/29 10:21:05;;;;;;;3.83;3.50;;;23.30;66.10;;;;;;5091123;28;20159;-50
2022/12/29 10:23:38;;;;;;;4.13;3.83;;;23.50;65.70;;;;;;5070451;28;20509;-50
2022/12/29 10:26:13;;;;;;;4.10;3.70;;;23.50;64.40;;;;;;5071275;28;20186;-49
2022/12/29 10:28:56;;;;;;;4.00;3.70;;;23.30;63.00;;;;;;5070420;28;20481;-48
2022/12/29 10:31:25;;;;;;;4.95;4.55;;;22.80;63.50;;;;;;5074823;28;20166;-47
2022/12/29 10:33:57;;;;;;;4.10;3.70;;;22.40;64.10;;;;;;5089966;28;20200;-46
2022/12/29 10:36:32;;;;;;;4.80;4.30;;;21.70;63.60;;;;;;5090862;28;20182;-49
2022/12/29 10:39:16;;;;;;;30.53;27.53;;;20.90;65.00;;;;;;5090562;28;20173;-48
2022/12/29 10:41:53;;;;;;;7.80;7.00;;;20.10;66.20;;;;;;5089866;28;20231;-48
2022/12/29 10:44:20;;;;;;;4.70;4.30;;;19.20;67.00;;;;;;5090596;28;20666;-46
2022/12/29 10:46:57;;;;;;;11.03;9.93;;;18.40;69.20;;;;;;5094979;28;20291;-45
2022/12/29 10:49:26;;;;;;;13.67;12.27;;;17.80;71.80;;;;;;5094628;28;20167;-47
2022/12/29 10:51:55;;;;;;;16.97;14.97;;;17.50;73.60;;;;;;5087956;28;20265;-45
2022/12/29 10:54:32;;;;;;;14.63;12.80;;;17.30;75.20;;;;;;5093973;28;20809;-47
2022/12/29 10:57:01;;;;;;;7.43;6.73;;;17.10;76.30;;;;;;5095073;28;20181;-47
2022/12/29 10:59:31;;;;;;;13.87;12.47;;;16.90;76.40;;;;;;5094354;28;20182;-50
2022/12/29 11:02:08;;;;;;;5.47;4.90;;;16.90;77.60;;;;;;5087643;28;20264;-47
2022/12/29 11:04:56;;;;;;;9.63;8.70;;;17.00;76.80;;;;;;5093918;28;20173;-48
2022/12/29 11:07:22;;;;;;;6.07;5.07;;;17.50;79.50;;;;;;5095079;28;20209;-47
2022/12/29 11:09:48;;;;;;;4.00;3.60;;;18.60;76.80;;;;;;5093122;28;20213;-51
2022/12/29 11:12:21;;;;;;;3.95;3.55;;;19.60;75.20;;;;;;5093780;28;20616;-50
2022/12/29 11:14:48;;;;;;;5.13;4.63;;;21.00;73.30;;;;;;5094037;28;20185;-50
2022/12/29 11:17:18;;;;;;;41.42;37.53;;;22.70;72.50;;;;;;5083333;28;20250;-48
2022/12/29 11:19:43;;;;;;;4.60;4.20;;;24.50;68.40;;;;;;5090165;28;20174;-50
2022/12/29 11:22:26;;;;;;;4.43;4.03;;;25.80;61.70;;;;;;5092548;28;20201;-52
2022/12/29 11:24:53;;;;;;;5.13;4.68;;;26.50;59.40;;;;;;5086367;28;20186;-50
2022/12/29 11:27:22;;;;;;;3.65;3.15;;;26.60;56.70;;;;;;5090560;28;20253;-51
2022/12/29 11:29:49;;;;;;;3.40;3.10;;;26.50;56.90;;;;;;5091459;28;20162;-50
2022/12/29 11:32:23;;;;;;;4.30;3.40;;;26.30;56.20;;;;;;5092014;28;20603;-50
2022/12/29 11:34:50;;;;;;;3.88;3.58;;;25.90;55.80;;;;;;5092472;28;20566;-53
2022/12/29 11:37:20;;;;;;;3.25;2.95;;;25.40;55.40;;;;;;5094075;28;20170;-49
2022/12/29 11:39:49;;;;;;;3.83;3.10;;;24.90;55.70;;;;;;5109152;28;20200;-51
2022/12/29 11:42:17;;;;;;;3.55;3.25;;;24.40;56.40;;;;;;5093700;28;20194;-49
2022/12/29 11:44:46;;;;;;;4.75;3.42;;;23.80;56.60;;;;;;5073246;28;20713;-49
2022/12/29 11:47:28;;;;;;;4.07;3.67;;;23.20;56.80;;;;;;5080743;28;20166;-50
2022/12/29 11:50:01;;;;;;;4.15;3.65;;;22.50;58.10;;;;;;5079976;28;20646;-46
2022/12/29 11:52:32;;;;;;;4.68;3.75;;;22.40;59.50;;;;;;5093516;28;20200;-48
2022/12/29 11:55:00;;;;;;;4.53;4.13;;;22.90;59.40;;;;;;5108449;28;20624;-51
2022/12/29 11:57:27;;;;;;;3.35;3.08;;;23.80;58.80;;;;;;5093811;28;20715;-49
2022/12/29 11:59:55;;;;;;;4.90;4.40;;;24.30;56.90;;;;;;5079378;28;20186;-50
2022/12/29 12:02:37;;;;;;;4.30;3.90;;;23.90;59.00;;;;;;5089596;28;20240;-48
2022/12/29 12:05:13;;;;;;;4.90;4.40;;;23.40;61.10;;;;;;5093395;28;20299;-52
2022/12/29 12:07:45;;;;;;;4.55;4.15;;;23.20;62.00;;;;;;5091760;28;20669;-50
2022/12/29 12:10:26;;;;;;;4.25;3.80;;;23.50;61.10;;;;;;5091755;28;20673;-50
2022/12/29 12:13:16;;;;;;;4.18;3.72;;;24.10;60.30;;;;;;5085038;28;20248;-51
2022/12/29 12:15:59;;;;;;;6.13;4.43;;;24.60;57.60;;;;;;5092789;28;20189;-51
2022/12/29 12:18:32;;;;;;;4.72;4.32;;;24.80;58.40;;;;;;5091078;28;20992;-49
2022/12/29 12:21:08;;;;;;;5.00;4.50;;;24.60;59.00;;;;;;5085921;28;20192;-49
2022/12/29 12:23:47;;;;;;;4.80;4.30;;;24.10;58.40;;;;;;5090484;28;20197;-53
2022/12/29 12:26:18;;;;;;;4.88;4.32;;;24.10;59.30;;;;;;5079325;28;20225;-50
2022/12/29 12:28:57;;;;;;;4.63;4.13;;;24.10;59.90;;;;;;5079010;28;20166;-51
2022/12/29 12:31:59;;;;;;;4.57;4.13;;;24.10;58.60;;;;;;5087285;28;20174;-48
2022/12/29 12:34:31;;;;;;;7.95;6.90;;;24.00;60.20;;;;;;5090400;28;20193;-51
2022/12/29 12:37:12;;;;;;;4.20;3.80;;;23.70;58.70;;;;;;5083727;28;20249;-49
2022/12/29 12:39:55;;;;;;;4.97;4.40;;;23.60;57.70;;;;;;5092032;28;20222;-49
2022/12/29 12:42:42;;;;;;;5.00;4.50;;;23.50;58.20;;;;;;5092490;28;20225;-52
2022/12/29 12:45:45;;;;;;;3.85;3.53;;;23.50;57.00;;;;;;5091417;28;20262;-49
2022/12/29 12:48:55;;;;;;;4.60;3.45;;;23.20;55.80;;;;;;5092634;28;20535;-49
2022/12/29 12:51:35;;;;;;;4.20;3.80;;;22.70;56.00;;;;;;5090215;28;20266;-48
2022/12/29 12:54:25;;;;;;;5.75;5.15;;;22.20;56.90;;;;;;5088495;28;20487;-47
2022/12/29 12:57:15;;;;;;;7.07;6.38;;;21.80;58.10;;;;;;5087061;28;20162;-49
2022/12/29 12:59:56;;;;;;;5.20;4.70;;;21.70;58.10;;;;;;5086327;28;20182;-48
2022/12/29 13:02:34;;;;;;;7.25;6.60;;;21.30;59.30;;;;;;5089380;28;20289;-48
2022/12/29 13:05:27;;;;;;;6.00;5.40;;;20.90;60.30;;;;;;5078208;28;20202;-49
2022/12/29 13:08:11;;;;;;;5.40;4.70;;;19.30;72.70;;;;;;5085262;28;20788;-48
2022/12/29 13:11:10;;;;;;;4.80;4.40;;;19.90;60.20;;;;;;5091996;28;20205;-51
2022/12/29 13:14:01;;;;;;;6.63;4.80;;;19.60;61.10;;;;;;5087863;28;20194;-48
2022/12/29 13:16:36;;;;;;;4.70;4.30;;;19.20;62.10;;;;;;5090910;28;20178;-49
2022/12/29 13:19:09;;;;;;;5.43;4.50;;;18.60;62.60;;;;;;5091602;28;20640;-48
2022/12/29 13:21:54;;;;;;;4.67;4.13;;;17.90;64.50;;;;;;5090830;28;20173;-49
2022/12/29 13:24:35;;;;;;;5.30;4.80;;;17.60;66.70;;;;;;5082391;28;20182;-46
2022/12/29 13:27:03;;;;;;;6.43;5.13;;;17.30;66.50;;;;;;5085389;28;20209;-49
2022/12/29 13:30:04;;;;;;;6.50;5.80;;;16.90;66.30;;;;;;5086723;28;20174;-51
2022/12/29 13:32:37;;;;;;;5.43;4.57;;;16.10;67.90;;;;;;5085720;28;20728;-49
2022/12/29 13:35:27;;;;;;;8.60;5.83;;;15.40;68.40;;;;;;5084807;28;20184;-47
2022/12/29 13:38:19;;;;;;;5.60;5.00;;;14.60;71.20;;;;;;5086714;28;20221;-49
2022/12/29 13:40:54;;;;;;;6.50;5.30;;;14.30;72.90;;;;;;5074704;28;20214;-51
2022/12/29 13:43:22;;;;;;;7.50;5.63;;;14.20;74.40;;;;;;5076407;28;20320;-53
2022/12/29 13:45:58;;;;;;;5.77;5.17;;;14.10;75.10;;;;;;5079059;28;20210;-52
2022/12/29 13:48:35;;;;;;;13.20;10.60;;;13.90;76.50;;;;;;5082778;28;20208;-52